Latest Weather Observations for Edenhope

IDV60801

Issued at 12:35 am EST Friday 3 October 2014 (issued every 30 minutes, with the page automatically refreshed every 10 minutes)

About weather observations | Map of weather stations | Latest weather observations for VIC | Other Formats
Station Details ID: 079099 Name: EDENHOPE AIRPORT Lat: -37.02 Lon: 141.27 Height: 155.0 m
Data from the previous 72 hours. | See also: Recent months at Edenhope
Date/Time
EST
Temp
°C
App
Temp
°C
Dew
Point
Rel
Hum
%
Delta-T
°C
Wind Press
QNH
hPa
Press
MSL
hPa
Rain
since 9 am
mm
Dir
 
Spd
km/h
Gust
km/h
Spd
kts
Gust
kts
03/12:30am 7.0 5.4 6.3 95 0.3 S 4 6 2 3 - - 0.0
03/12:00am 7.6 6.1 6.7 94 0.4 SSE 4 7 2 4 - - 0.0
 
Date/Time
EST
Temp
°C
App
Temp
°C
Dew
Point
Rel
Hum
%
Delta-T
°C
Wind Press
QNH
hPa
Press
MSL
hPa
Rain
since 9 am
mm
Dir
 
Spd
km/h
Gust
km/h
Spd
kts
Gust
kts
02/11:30pm 7.6 5.5 6.5 93 0.5 S 7 7 4 4 - - 0.0
02/11:00pm 8.3 6.9 7.1 92 0.6 S 4 6 2 3 - - 0.0
02/10:30pm 8.7 6.9 7.3 91 0.7 S 6 7 3 4 - - 0.0
02/10:00pm 9.8 7.9 7.7 87 1.0 S 7 11 4 6 - - 0.0
02/09:30pm 10.2 8.0 8.0 86 1.1 S 9 15 5 8 - - 0.0
02/09:00pm 11.3 9.6 8.5 83 1.4 S 7 9 4 5 - - 0.0
02/08:30pm 12.2 10.4 7.9 75 2.1 SSW 7 9 4 5 - - 0.0
02/08:00pm 12.7 11.1 8.0 73 2.3 SSW 6 7 3 4 - - 0.0
02/07:30pm 12.8 11.6 8.1 73 2.3 S 4 7 2 4 - - 0.0
02/07:00pm 13.0 11.4 8.1 72 2.4 SSW 6 9 3 5 - - 0.0
02/06:30pm 13.7 12.0 8.3 70 2.7 SW 7 9 4 5 - - 0.0
02/06:00pm 14.6 12.5 8.1 65 3.3 SW 9 15 5 8 - - 0.0
02/05:30pm 15.1 12.2 8.3 64 3.5 SW 13 19 7 10 - - 0.0
02/05:00pm 15.5 13.3 8.0 61 3.8 WSW 9 17 5 9 - - 0.0
02/04:30pm 15.4 13.3 8.2 62 3.7 SW 9 13 5 7 - - 0.0
02/04:00pm 15.4 12.8 7.7 60 3.9 SSW 11 17 6 9 - - 0.0
02/03:30pm 15.6 12.7 8.1 61 3.8 SW 13 20 7 11 - - 0.0
02/03:00pm 15.5 12.2 8.0 61 3.8 SW 15 24 8 13 - - 0.0
02/02:30pm 15.3 11.6 8.1 62 3.6 WSW 17 22 9 12 - - 0.0
02/02:00pm 15.0 11.1 8.7 66 3.2 WSW 19 26 10 14 - - 0.0
02/01:30pm 15.4 11.3 7.9 61 3.8 SW 19 26 10 14 - - 0.0
02/01:00pm 15.4 12.0 7.7 60 3.9 SW 15 22 8 12 - - 0.0
02/12:30pm 14.1 10.2 8.5 69 2.8 WSW 19 28 10 15 - - 0.0
02/12:00pm 14.2 11.5 8.8 70 2.8 WSW 13 19 7 10 - - 0.0
02/11:30am 13.4 10.4 9.1 75 2.2 SW 15 22 8 12 - - 0.0
02/11:00am 13.7 10.8 8.3 70 2.7 WSW 13 24 7 13 - - 0.0
02/10:30am 13.5 10.6 8.1 70 2.7 W 13 24 7 13 - - 0.0
02/10:00am 12.9 9.4 8.6 75 2.2 WSW 17 24 9 13 - - 0.0
02/09:30am 12.1 10.2 8.9 81 1.6 W 9 15 5 8 - - 0.0
02/09:00am 11.3 7.9 9.2 87 1.1 SW 17 24 9 13 - - 0.0
02/08:30am 11.6 8.5 8.8 83 1.4 WSW 15 20 8 11 - - 0.0
02/08:00am 10.8 8.3 8.2 84 1.3 WSW 11 17 6 9 - - 0.0
02/07:30am 10.5 8.5 7.2 80 1.6 W 7 11 4 6 - - 0.0
02/07:00am 10.2 8.4 7.3 82 1.4 W 6 7 3 4 - - 0.0
02/06:30am 9.9 7.1 7.0 82 1.4 WSW 11 20 6 11 - - 0.0
02/06:00am 9.9 7.4 6.6 80 1.6 W 9 13 5 7 - - 0.0
02/05:30am 9.9 7.4 6.6 80 1.6 W 9 13 5 7 - - 0.0
02/05:00am 9.8 7.7 6.5 80 1.6 W 7 9 4 5 - - 0.0
02/04:30am 9.8 7.9 6.5 80 1.6 WSW 6 7 3 4 - - 0.0
02/04:00am 9.8 7.8 6.3 79 1.6 WSW 6 7 3 4 - - 0.0
02/03:30am 9.8 7.6 6.2 78 1.7 WSW 7 9 4 5 - - 0.0
02/03:00am 9.7 7.7 6.4 80 1.5 W 6 11 3 6 - - 0.0
02/02:30am 9.7 7.2 6.4 80 1.5 W 9 13 5 7 - - 0.0
02/02:00am 9.5 7.3 6.4 81 1.4 W 7 11 4 6 - - 0.0
02/01:30am 9.2 7.3 6.5 83 1.3 W 6 9 3 5 - - 0.0
02/01:00am 9.3 7.3 6.2 81 1.4 WSW 6 7 3 4 - - 0.0
02/12:30am 9.0 7.0 6.1 82 1.3 W 6 9 3 5 - - 0.0
02/12:00am 8.8 6.8 6.1 83 1.2 WSW 6 11 3 6 - - 0.0
 
Date/Time
EST
Temp
°C
App
Temp
°C
Dew
Point
Rel
Hum
%
Delta-T
°C
Wind Press
QNH
hPa
Press
MSL
hPa
Rain
since 9 am
mm
Dir
 
Spd
km/h
Gust
km/h
Spd
kts
Gust
kts
01/11:30pm 7.6 5.8 5.6 87 0.9 WSW 4 6 2 3 - - 0.0
01/11:00pm 6.7 4.8 5.0 89 0.8 WSW 4 6 2 3 - - 0.0
01/10:30pm 6.8 5.2 4.5 85 1.0 WSW 2 4 1 2 - - 0.0
01/10:00pm 7.3 5.3 4.4 82 1.3 WSW 4 4 2 2 - - 0.0
01/09:30pm 8.2 6.3 4.8 79 1.5 SW 4 4 2 2 - - 0.0
01/09:00pm 8.4 6.1 5.0 79 1.5 SW 6 7 3 4 - - 0.0
01/08:30pm 9.0 6.8 5.4 78 1.6 SSW 6 7 3 4 - - 0.0
01/08:00pm 9.1 7.3 5.5 78 1.6 SW 4 6 2 3 - - 0.0
01/07:30pm 9.6 7.8 5.6 76 1.8 SW 4 6 2 3 - - 0.0
01/07:00pm 10.1 8.0 5.7 74 2.0 SW 6 9 3 5 - - 0.0
01/06:30pm 11.8 8.8 5.9 67 2.8 SW 11 17 6 9 - - 0.0
01/06:00pm 13.3 11.1 6.2 62 3.4 SW 7 13 4 7 - - 0.0
01/05:30pm 13.9 9.9 4.8 54 4.3 SW 15 24 8 13 - - 0.0
01/05:00pm 13.4 9.4 5.1 57 3.9 SW 15 24 8 13 - - 0.0
01/04:30pm 14.3 9.9 4.9 53 4.4 WSW 17 24 9 13 - - 0.0
01/04:00pm 14.4 9.9 4.4 51 4.7 SW 17 26 9 14 - - 0.0
01/03:30pm 14.1 10.4 4.4 52 4.5 SW 13 17 7 9 - - 0.0
01/03:00pm 14.4 10.7 4.7 52 4.5 SW 13 22 7 12 - - 0.0
01/02:30pm 14.6 10.8 5.7 55 4.3 WSW 15 24 8 13 - - 0.0
01/02:00pm 14.3 10.3 4.9 53 4.4 SSW 15 24 8 13 - - 0.0
01/01:30pm 14.8 11.0 5.9 55 4.3 WSW 15 22 8 12 - - 0.0
01/01:00pm 14.4 10.2 5.5 55 4.2 WSW 17 22 9 12 - - 0.0
01/12:30pm 13.7 10.4 4.3 53 4.3 SW 11 22 6 12 - - 0.0
01/12:00pm 13.2 9.1 4.6 56 4.0 WSW 15 22 8 12 - - 0.0
01/11:30am 13.2 9.7 3.3 51 4.5 SW 11 15 6 8 - - 0.0
01/11:00am 13.0 8.5 4.4 56 4.0 SW 17 26 9 14 - - 0.0
01/10:30am 12.4 8.2 3.6 55 4.0 SSW 15 24 8 13 - - 0.0
01/10:00am 11.9 8.3 5.1 63 3.2 SW 13 19 7 10 - - 0.0
01/09:30am 11.0 7.0 5.1 67 2.7 SW 15 20 8 11 - - 0.0
01/09:00am 10.0 6.9 5.4 73 2.1 WSW 11 17 6 9 - - 3.8
01/08:30am 8.2 6.5 5.7 84 1.1 W 4 7 2 4 - - 3.8
01/08:00am 6.5 4.5 4.5 87 0.9 W 4 7 2 4 - - 3.8
01/07:30am 4.8 2.8 4.2 96 0.3 NW 4 6 2 3 - - 3.8
01/07:00am 3.4 0.8 3.1 98 0.1 NW 6 7 3 4 - - 3.8
01/06:30am 1.2 -1.4 0.8 97 0.2 NW 4 6 2 3 - - 3.8
01/06:00am 1.9 -0.2 1.5 97 0.2 NW 2 2 1 1 - - 3.8
01/05:30am 1.3 -0.6 0.6 95 0.3 CALM 0 0 0 0 - - 3.8
01/05:00am 2.6 0.9 2.0 96 0.2 CALM 0 0 0 0 - - 3.8
01/04:30am 3.0 1.3 2.1 94 0.4 CALM 0 0 0 0 - - 3.8
01/04:00am 3.4 1.4 2.2 92 0.5 WSW 2 4 1 2 - - 3.8
01/03:30am 4.1 1.9 3.1 93 0.4 SW 4 6 2 3 - - 3.8
01/03:00am 4.0 2.1 2.7 91 0.5 WNW 2 4 1 2 - - 3.8
01/02:30am 4.3 1.6 2.7 89 0.7 W 6 9 3 5 - - 3.8
01/02:00am 4.5 1.8 2.8 89 0.7 WSW 6 7 3 4 - - 3.8
01/01:30am 4.8 2.0 3.0 88 0.7 WSW 7 11 4 6 - - 3.8
01/01:00am 5.7 3.0 3.5 86 0.9 WSW 7 13 4 7 - - 3.8
01/12:30am 5.7 3.0 3.7 87 0.8 WSW 7 9 4 5 - - 3.6
01/12:00am 6.2 3.3 4.5 89 0.7 WSW 9 19 5 10 - - 3.6
 
Date/Time
EST
Temp
°C
App
Temp
°C
Dew
Point
Rel
Hum
%
Delta-T
°C
Wind Press
QNH
hPa
Press
MSL
hPa
Rain
since 9 am
mm
Dir
 
Spd
km/h
Gust
km/h
Spd
kts
Gust
kts
30/11:30pm 4.9 2.8 4.0 94 0.4 SW 4 6 2 3 - - 3.6
30/11:00pm 4.7 2.2 3.5 92 0.5 WNW 6 7 3 4 - - 3.6
30/10:30pm 5.4 3.3 4.1 91 0.6 WSW 4 7 2 4 - - 3.6
30/10:00pm 5.7 2.7 4.0 89 0.7 W 9 13 5 7 - - 3.6
30/09:30pm 6.5 3.6 4.5 87 0.9 W 9 13 5 7 - - 3.6
30/09:00pm 7.3 4.1 5.0 85 1.0 W 11 17 6 9 - - 3.6
30/08:30pm 8.3 5.1 5.2 81 1.4 WSW 11 15 6 8 - - 3.6
30/08:00pm 8.2 4.9 4.8 79 1.5 WSW 11 17 6 9 - - 3.6
30/07:30pm 7.8 4.5 4.7 81 1.4 W 11 17 6 9 - - 3.6
30/07:00pm 8.2 4.1 4.2 76 1.8 W 15 22 8 12 - - 3.6
30/06:30pm 8.2 3.2 4.4 77 1.7 W 20 33 11 18 - - 3.6
30/06:09pm 8.2 1.9 5.7 84 1.1 WSW 28 46 15 25 - - 3.6
30/06:00pm 8.4 1.1 5.3 81 1.4 WSW 33 50 18 27 - - 3.4
30/05:55pm 10.2 3.8 5.2 71 2.3 WSW 28 50 15 27 - - 3.2
30/05:30pm 11.2 4.5 3.7 60 3.3 WSW 28 41 15 22 - - 3.0
30/05:00pm 12.1 4.7 4.1 58 3.6 WSW 32 48 17 26 - - 3.0
30/04:53pm 12.2 4.7 3.2 54 4.0 WSW 32 52 17 28 - - 3.0
30/04:30pm 13.4 5.8 4.0 53 4.3 WSW 33 50 18 27 - - 3.0
30/04:21pm 13.0 6.4 4.4 56 4.0 WSW 28 48 15 26 - - 3.0
30/04:00pm 14.2 6.9 5.6 56 4.1 WSW 33 48 18 26 - - 3.0
30/03:30pm 13.2 4.6 4.6 56 4.0 WSW 39 57 21 31 - - 3.0
30/03:00pm 13.1 5.6 6.2 63 3.3 W 35 61 19 33 - - 3.0
30/02:32pm 12.2 5.4 7.5 73 2.3 W 33 54 18 29 - - 3.0
30/02:30pm 11.9 4.5 6.8 71 2.5 W 35 54 19 29 - - 3.0
30/02:11pm 11.4 1.7 7.5 77 1.9 WSW 48 70 26 38 - - 2.8
30/02:02pm 11.9 6.5 9.6 86 1.2 W 28 48 15 26 - - 2.8
30/02:00pm 11.8 6.8 9.5 86 1.2 W 26 41 14 22 - - 2.8
30/01:30pm 10.6 5.4 9.0 90 0.8 W 26 37 14 20 - - 2.8
30/01:05pm 11.2 4.5 9.8 91 0.7 W 35 59 19 32 - - 2.4
30/01:00pm 12.3 6.5 10.9 91 0.7 W 32 43 17 23 - - 1.6
30/12:45pm 12.1 5.3 10.5 90 0.8 W 37 57 20 31 - - 1.6
30/12:34pm 11.9 5.1 10.6 92 0.7 W 37 50 20 27 - - 1.6
30/12:30pm 11.8 0.2 9.7 87 1.1 W 61 87 33 47 - - 0.8
30/12:29pm 12.1 -0.3 9.7 85 1.2 W 65 87 35 47 - - 0.8
30/12:28pm 13.0 4.9 10.2 83 1.5 W 43 80 23 43 - - 0.6
30/12:01pm 17.6 9.9 8.5 55 4.7 WNW 39 59 21 32 - - 0.0
30/12:00pm 17.7 9.6 8.6 55 4.7 WNW 41 59 22 32 - - 0.0
30/11:38am 18.1 10.9 9.2 56 4.7 WNW 37 59 20 32 - - 0.0
30/11:30am 17.6 10.9 9.5 59 4.3 WNW 35 52 19 28 - - 0.0
30/11:17am 17.4 11.1 9.6 60 4.1 WNW 33 54 18 29 - - 0.0
30/11:00am 16.4 9.9 10.3 67 3.2 WNW 35 52 19 28 - - 0.0
30/10:30am 17.0 10.3 9.7 62 3.9 WNW 35 57 19 31 - - 0.0
30/10:03am 17.7 11.5 9.3 58 4.4 NW 32 54 17 29 - - 0.0
30/10:00am 17.0 10.8 9.2 60 4.1 NW 32 46 17 25 - - 0.0
30/09:49am 16.6 10.4 9.5 63 3.7 WNW 32 50 17 27 - - 0.0
30/09:30am 17.4 12.7 10.8 65 3.6 NW 26 39 14 21 - - 0.0
30/09:00am 15.0 10.0 9.6 70 2.8 NW 26 37 14 20 - - 0.0
30/08:30am 13.9 10.1 9.7 76 2.2 NW 20 39 11 21 - - 0.0
30/08:00am 13.4 10.3 10.4 82 1.6 NNW 17 28 9 15 - - 0.0
30/07:30am 11.9 9.5 10.1 89 0.9 NNW 13 19 7 10 - - 0.0
30/07:00am 11.2 8.3 9.8 91 0.7 NNW 15 24 8 13 - - 0.0
30/06:30am 11.0 7.8 9.9 93 0.6 NNW 17 26 9 14 - - 0.0
30/06:00am 11.1 9.1 10.3 95 0.4 NNW 11 19 6 10 - - 0.0
30/05:30am 11.0 9.0 10.1 94 0.5 NNW 11 17 6 9 - - 0.0
30/05:00am 10.7 8.3 9.9 95 0.4 NNW 13 17 7 9 - - 0.0
30/04:30am 10.2 8.8 9.7 97 0.3 NNW 7 11 4 6 - - 0.0
30/04:00am 9.5 7.6 9.0 97 0.2 N 9 13 5 7 - - 0.0
30/03:30am 9.3 7.3 8.5 95 0.4 NNW 9 17 5 9 - - 0.0
30/03:00am 9.7 7.3 8.8 94 0.4 NNW 11 15 6 8 - - 0.0
30/02:30am 9.8 7.5 8.9 94 0.4 NNW 11 15 6 8 - - 0.0
30/02:00am 9.7 7.7 8.8 94 0.4 NNW 9 13 5 7 - - 0.0
30/01:30am 9.6 7.6 8.8 95 0.4 NNW 9 11 5 6 - - 0.0
30/01:00am 9.8 8.2 8.7 93 0.5 NNW 7 11 4 6 - - 0.0

Other Formats:

Comma delimited format used in spreadsheet applications
http://www.bom.gov.au/fwo/IDV60801/IDV60801.95832.axf

JavaScript Object Notation format (JSON) in row-major order
http://www.bom.gov.au/fwo/IDV60801/IDV60801.95832.json